Terminal Aerodrome Forecast
Issued by NWS Corpus Christi, TX

Current Version | Previous Version | Text Only | Print | Product List | Glossary Off
Versions: 1 2 3 4 5 6 7 8 9 10 11 12 13 14 15 16 17 18 19 20 21 22 23 24 25

000
FTUS44 KCRP 261407 AAC
TAFCRP
TAF AMD
KCRP 261407Z 2614/2712 16010KT P6SM VCSH SCT015 BKN035 OVC150
      TEMPO 2614/2616 4SM -SHRA BKN015
     FM261600 16013KT P6SM VCSH BKN035 OVC150
     FM262000 14016G24KT P6SM VCTS BKN040CB OVC150
     FM270200 14015KT P6SM BKN015 BKN025
     FM270900 15008KT P6SM VCSH BKN015=

USA.gov is the U.S. government's official web portal to all federal, state and local government web resources and services.